sensor_id;sensor_type;location;lat;lon;timestamp;P1;durP1;ratioP1;P2;durP2;ratioP2
14766;SDS011;7475;53.558;9.970;2022-08-21T00:00:12;18.52;;;9.70;;
14766;SDS011;7475;53.558;9.970;2022-08-21T00:02:43;15.35;;;11.23;;
14766;SDS011;7475;53.558;9.970;2022-08-21T00:05:09;21.88;;;12.07;;
14766;SDS011;7475;53.558;9.970;2022-08-21T00:07:35;28.85;;;17.30;;
14766;SDS011;7475;53.558;9.970;2022-08-21T00:10:00;19.27;;;10.13;;
14766;SDS011;7475;53.558;9.970;2022-08-21T00:12:25;22.88;;;13.32;;
14766;SDS011;7475;53.558;9.970;2022-08-21T00:14:59;19.50;;;9.18;;
14766;SDS011;7475;53.558;9.970;2022-08-21T00:17:24;18.75;;;7.97;;
14766;SDS011;7475;53.558;9.970;2022-08-21T00:19:50;12.77;;;6.75;;
14766;SDS011;7475;53.558;9.970;2022-08-21T00:22:15;17.40;;;9.40;;
14766;SDS011;7475;53.558;9.970;2022-08-21T00:24:40;15.33;;;6.90;;
14766;SDS011;7475;53.558;9.970;2022-08-21T00:27:05;16.80;;;7.13;;
14766;SDS011;7475;53.558;9.970;2022-08-21T00:29:30;13.03;;;6.67;;
14766;SDS011;7475;53.558;9.970;2022-08-21T00:31:56;18.48;;;9.98;;
14766;SDS011;7475;53.558;9.970;2022-08-21T00:34:21;13.27;;;8.05;;
14766;SDS011;7475;53.558;9.970;2022-08-21T00:36:46;14.98;;;9.55;;
14766;SDS011;7475;53.558;9.970;2022-08-21T00:39:12;19.23;;;7.95;;
14766;SDS011;7475;53.558;9.970;2022-08-21T00:41:38;19.20;;;6.73;;
14766;SDS011;7475;53.558;9.970;2022-08-21T00:44:04;18.42;;;8.40;;
14766;SDS011;7475;53.558;9.970;2022-08-21T00:46:29;25.98;;;7.93;;
14766;SDS011;7475;53.558;9.970;2022-08-21T00:48:54;23.20;;;8.98;;
14766;SDS011;7475;53.558;9.970;2022-08-21T00:51:21;21.23;;;9.27;;
14766;SDS011;7475;53.558;9.970;2022-08-21T00:53:51;16.58;;;7.45;;
14766;SDS011;7475;53.558;9.970;2022-08-21T00:56:18;18.35;;;8.00;;
14766;SDS011;7475;53.558;9.970;2022-08-21T00:58:44;14.60;;;8.57;;
14766;SDS011;7475;53.558;9.970;2022-08-21T01:01:10;10.52;;;5.80;;
14766;SDS011;7475;53.558;9.970;2022-08-21T01:03:36;37.83;;;27.73;;
14766;SDS011;7475;53.558;9.970;2022-08-21T01:06:02;13.00;;;6.80;;
14766;SDS011;7475;53.558;9.970;2022-08-21T01:08:29;10.93;;;6.60;;
14766;SDS011;7475;53.558;9.970;2022-08-21T01:10:54;12.70;;;5.70;;
14766;SDS011;7475;53.558;9.970;2022-08-21T01:13:20;14.23;;;5.03;;
14766;SDS011;7475;53.558;9.970;2022-08-21T01:15:48;16.80;;;6.40;;
14766;SDS011;7475;53.558;9.970;2022-08-21T01:18:14;19.40;;;7.50;;
14766;SDS011;7475;53.558;9.970;2022-08-21T01:20:42;14.48;;;6.25;;
14766;SDS011;7475;53.558;9.970;2022-08-21T01:23:08;18.90;;;8.45;;
14766;SDS011;7475;53.558;9.970;2022-08-21T01:25:33;22.50;;;9.70;;
14766;SDS011;7475;53.558;9.970;2022-08-21T01:28:00;18.88;;;6.90;;
14766;SDS011;7475;53.558;9.970;2022-08-21T01:30:27;17.50;;;7.75;;
14766;SDS011;7475;53.558;9.970;2022-08-21T01:32:53;15.05;;;6.25;;
14766;SDS011;7475;53.558;9.970;2022-08-21T01:35:19;19.15;;;7.22;;
14766;SDS011;7475;53.558;9.970;2022-08-21T01:37:45;10.82;;;6.35;;
14766;SDS011;7475;53.558;9.970;2022-08-21T01:40:11;15.75;;;5.40;;
14766;SDS011;7475;53.558;9.970;2022-08-21T01:42:37;12.50;;;4.90;;
14766;SDS011;7475;53.558;9.970;2022-08-21T01:45:03;13.30;;;4.97;;
14766;SDS011;7475;53.558;9.970;2022-08-21T01:47:28;12.00;;;5.10;;
14766;SDS011;7475;53.558;9.970;2022-08-21T01:49:54;13.10;;;4.80;;
14766;SDS011;7475;53.558;9.970;2022-08-21T01:52:19;11.35;;;4.55;;
14766;SDS011;7475;53.558;9.970;2022-08-21T01:54:45;38.57;;;21.60;;
14766;SDS011;7475;53.558;9.970;2022-08-21T01:57:10;11.70;;;5.22;;
14766;SDS011;7475;53.558;9.970;2022-08-21T01:59:36;13.00;;;4.57;;
14766;SDS011;7475;53.558;9.970;2022-08-21T02:02:02;15.95;;;5.00;;
14766;SDS011;7475;53.558;9.970;2022-08-21T02:04:28;13.80;;;5.53;;
14766;SDS011;7475;53.558;9.970;2022-08-21T02:06:53;10.82;;;4.57;;
14766;SDS011;7475;53.558;9.970;2022-08-21T02:09:18;14.03;;;5.30;;
14766;SDS011;7475;53.558;9.970;2022-08-21T02:11:44;15.30;;;5.60;;
14766;SDS011;7475;53.558;9.970;2022-08-21T02:14:10;15.98;;;6.55;;
14766;SDS011;7475;53.558;9.970;2022-08-21T02:16:36;13.02;;;5.75;;
14766;SDS011;7475;53.558;9.970;2022-08-21T02:19:01;11.93;;;6.60;;
14766;SDS011;7475;53.558;9.970;2022-08-21T02:21:27;13.05;;;5.70;;
14766;SDS011;7475;53.558;9.970;2022-08-21T02:23:52;12.18;;;5.85;;
14766;SDS011;7475;53.558;9.970;2022-08-21T02:26:17;12.02;;;7.50;;
14766;SDS011;7475;53.558;9.970;2022-08-21T02:28:43;13.60;;;5.93;;
14766;SDS011;7475;53.558;9.970;2022-08-21T02:31:08;9.98;;;5.57;;
14766;SDS011;7475;53.558;9.970;2022-08-21T02:33:33;12.05;;;5.78;;
14766;SDS011;7475;53.558;9.970;2022-08-21T02:35:59;7.57;;;3.88;;
14766;SDS011;7475;53.558;9.970;2022-08-21T02:38:26;6.55;;;3.25;;
14766;SDS011;7475;53.558;9.970;2022-08-21T02:40:52;9.65;;;3.30;;
14766;SDS011;7475;53.558;9.970;2022-08-21T02:43:18;7.47;;;3.67;;
14766;SDS011;7475;53.558;9.970;2022-08-21T02:45:44;23.90;;;5.70;;
14766;SDS011;7475;53.558;9.970;2022-08-21T02:48:10;13.13;;;5.47;;
14766;SDS011;7475;53.558;9.970;2022-08-21T02:50:37;13.52;;;4.72;;
14766;SDS011;7475;53.558;9.970;2022-08-21T02:53:04;12.25;;;4.50;;
14766;SDS011;7475;53.558;9.970;2022-08-21T02:55:31;11.32;;;5.45;;
14766;SDS011;7475;53.558;9.970;2022-08-21T02:57:56;9.60;;;4.25;;
14766;SDS011;7475;53.558;9.970;2022-08-21T03:00:23;11.60;;;5.05;;
14766;SDS011;7475;53.558;9.970;2022-08-21T03:02:49;10.52;;;4.15;;
14766;SDS011;7475;53.558;9.970;2022-08-21T03:05:14;10.07;;;3.75;;
14766;SDS011;7475;53.558;9.970;2022-08-21T03:07:40;9.10;;;4.22;;
14766;SDS011;7475;53.558;9.970;2022-08-21T03:10:06;7.88;;;3.90;;
14766;SDS011;7475;53.558;9.970;2022-08-21T03:12:31;6.95;;;3.40;;
14766;SDS011;7475;53.558;9.970;2022-08-21T03:14:57;8.85;;;3.60;;
14766;SDS011;7475;53.558;9.970;2022-08-21T03:17:22;6.85;;;3.22;;
14766;SDS011;7475;53.558;9.970;2022-08-21T03:19:48;7.78;;;3.25;;
14766;SDS011;7475;53.558;9.970;2022-08-21T03:22:13;8.57;;;3.13;;
14766;SDS011;7475;53.558;9.970;2022-08-21T03:24:38;5.50;;;2.85;;
14766;SDS011;7475;53.558;9.970;2022-08-21T03:27:03;5.67;;;3.10;;
14766;SDS011;7475;53.558;9.970;2022-08-21T03:29:28;7.20;;;2.95;;
14766;SDS011;7475;53.558;9.970;2022-08-21T03:31:54;7.47;;;3.25;;
14766;SDS011;7475;53.558;9.970;2022-08-21T03:34:20;5.70;;;2.80;;
14766;SDS011;7475;53.558;9.970;2022-08-21T03:36:45;8.10;;;3.45;;
14766;SDS011;7475;53.558;9.970;2022-08-21T03:39:10;8.27;;;3.33;;
14766;SDS011;7475;53.558;9.970;2022-08-21T03:41:35;6.97;;;3.45;;
14766;SDS011;7475;53.558;9.970;2022-08-21T03:44:01;7.10;;;3.17;;
14766;SDS011;7475;53.558;9.970;2022-08-21T03:46:26;8.48;;;3.60;;
14766;SDS011;7475;53.558;9.970;2022-08-21T03:48:51;8.07;;;3.97;;
14766;SDS011;7475;53.558;9.970;2022-08-21T03:51:17;8.20;;;3.22;;
14766;SDS011;7475;53.558;9.970;2022-08-21T03:53:42;7.15;;;3.40;;
14766;SDS011;7475;53.558;9.970;2022-08-21T03:56:08;8.82;;;4.10;;
14766;SDS011;7475;53.558;9.970;2022-08-21T03:58:33;5.47;;;3.03;;
14766;SDS011;7475;53.558;9.970;2022-08-21T04:00:59;7.15;;;3.55;;
14766;SDS011;7475;53.558;9.970;2022-08-21T04:03:26;7.80;;;3.17;;
14766;SDS011;7475;53.558;9.970;2022-08-21T04:05:51;7.18;;;3.88;;
14766;SDS011;7475;53.558;9.970;2022-08-21T04:08:16;11.55;;;3.70;;
14766;SDS011;7475;53.558;9.970;2022-08-21T04:10:44;7.72;;;3.55;;
14766;SDS011;7475;53.558;9.970;2022-08-21T04:13:10;9.48;;;3.95;;
14766;SDS011;7475;53.558;9.970;2022-08-21T04:15:35;18.00;;;6.25;;
14766;SDS011;7475;53.558;9.970;2022-08-21T04:18:02;11.27;;;4.45;;
14766;SDS011;7475;53.558;9.970;2022-08-21T04:20:27;9.10;;;3.42;;
14766;SDS011;7475;53.558;9.970;2022-08-21T04:22:53;7.88;;;3.40;;
14766;SDS011;7475;53.558;9.970;2022-08-21T04:25:19;6.80;;;3.40;;
14766;SDS011;7475;53.558;9.970;2022-08-21T04:27:44;7.53;;;3.42;;
14766;SDS011;7475;53.558;9.970;2022-08-21T04:30:10;11.07;;;5.32;;
14766;SDS011;7475;53.558;9.970;2022-08-21T04:32:36;5.93;;;3.22;;
14766;SDS011;7475;53.558;9.970;2022-08-21T04:35:06;6.93;;;3.85;;
14766;SDS011;7475;53.558;9.970;2022-08-21T04:37:32;6.55;;;3.70;;
14766;SDS011;7475;53.558;9.970;2022-08-21T04:39:57;6.30;;;3.30;;
14766;SDS011;7475;53.558;9.970;2022-08-21T04:42:26;7.30;;;3.65;;
14766;SDS011;7475;53.558;9.970;2022-08-21T04:44:52;5.85;;;3.53;;
14766;SDS011;7475;53.558;9.970;2022-08-21T04:47:17;6.50;;;3.70;;
14766;SDS011;7475;53.558;9.970;2022-08-21T04:49:43;9.57;;;4.30;;
14766;SDS011;7475;53.558;9.970;2022-08-21T04:52:09;5.05;;;3.22;;
14766;SDS011;7475;53.558;9.970;2022-08-21T04:54:34;8.10;;;4.05;;
14766;SDS011;7475;53.558;9.970;2022-08-21T04:57:01;7.53;;;3.53;;
14766;SDS011;7475;53.558;9.970;2022-08-21T04:59:33;7.05;;;3.45;;
14766;SDS011;7475;53.558;9.970;2022-08-21T05:02:00;11.00;;;6.07;;
14766;SDS011;7475;53.558;9.970;2022-08-21T05:04:26;8.18;;;3.45;;
14766;SDS011;7475;53.558;9.970;2022-08-21T05:06:53;10.23;;;5.18;;
14766;SDS011;7475;53.558;9.970;2022-08-21T05:09:20;8.82;;;2.70;;
14766;SDS011;7475;53.558;9.970;2022-08-21T05:11:45;5.78;;;2.78;;
14766;SDS011;7475;53.558;9.970;2022-08-21T05:14:11;6.80;;;3.33;;
14766;SDS011;7475;53.558;9.970;2022-08-21T05:16:36;6.90;;;3.15;;
14766;SDS011;7475;53.558;9.970;2022-08-21T05:19:02;8.50;;;3.00;;
14766;SDS011;7475;53.558;9.970;2022-08-21T05:21:27;8.40;;;4.35;;
14766;SDS011;7475;53.558;9.970;2022-08-21T05:23:52;6.97;;;2.70;;
14766;SDS011;7475;53.558;9.970;2022-08-21T05:26:17;5.60;;;2.63;;
14766;SDS011;7475;53.558;9.970;2022-08-21T05:28:43;7.45;;;3.50;;
14766;SDS011;7475;53.558;9.970;2022-08-21T05:31:08;6.55;;;2.13;;
14766;SDS011;7475;53.558;9.970;2022-08-21T05:33:33;8.35;;;5.18;;
14766;SDS011;7475;53.558;9.970;2022-08-21T05:35:58;6.60;;;2.80;;
14766;SDS011;7475;53.558;9.970;2022-08-21T05:38:24;9.55;;;5.07;;
14766;SDS011;7475;53.558;9.970;2022-08-21T05:40:49;5.90;;;2.13;;
14766;SDS011;7475;53.558;9.970;2022-08-21T05:43:15;6.27;;;3.80;;
14766;SDS011;7475;53.558;9.970;2022-08-21T05:45:40;6.55;;;1.95;;
14766;SDS011;7475;53.558;9.970;2022-08-21T05:48:06;4.15;;;1.65;;
14766;SDS011;7475;53.558;9.970;2022-08-21T05:50:31;3.80;;;2.00;;
14766;SDS011;7475;53.558;9.970;2022-08-21T05:52:57;4.67;;;1.60;;
14766;SDS011;7475;53.558;9.970;2022-08-21T05:55:22;5.30;;;2.03;;
14766;SDS011;7475;53.558;9.970;2022-08-21T05:57:47;3.43;;;1.50;;
14766;SDS011;7475;53.558;9.970;2022-08-21T06:00:13;3.95;;;1.98;;
14766;SDS011;7475;53.558;9.970;2022-08-21T06:02:39;5.78;;;2.05;;
14766;SDS011;7475;53.558;9.970;2022-08-21T06:05:04;3.92;;;1.75;;
14766;SDS011;7475;53.558;9.970;2022-08-21T06:07:30;4.07;;;1.70;;
14766;SDS011;7475;53.558;9.970;2022-08-21T06:09:55;5.57;;;1.83;;
14766;SDS011;7475;53.558;9.970;2022-08-21T06:12:20;5.22;;;1.60;;
14766;SDS011;7475;53.558;9.970;2022-08-21T06:14:46;3.47;;;1.77;;
14766;SDS011;7475;53.558;9.970;2022-08-21T06:17:11;5.80;;;1.73;;
14766;SDS011;7475;53.558;9.970;2022-08-21T06:19:37;3.20;;;1.65;;
14766;SDS011;7475;53.558;9.970;2022-08-21T06:22:02;3.58;;;1.40;;
14766;SDS011;7475;53.558;9.970;2022-08-21T06:24:28;4.35;;;1.80;;
14766;SDS011;7475;53.558;9.970;2022-08-21T06:26:53;3.33;;;1.60;;
14766;SDS011;7475;53.558;9.970;2022-08-21T06:29:19;5.25;;;1.70;;
14766;SDS011;7475;53.558;9.970;2022-08-21T06:31:45;4.53;;;1.83;;
14766;SDS011;7475;53.558;9.970;2022-08-21T06:34:10;6.07;;;2.00;;
14766;SDS011;7475;53.558;9.970;2022-08-21T06:36:35;5.37;;;2.00;;
14766;SDS011;7475;53.558;9.970;2022-08-21T06:39:02;5.63;;;2.25;;
14766;SDS011;7475;53.558;9.970;2022-08-21T06:41:27;6.35;;;1.90;;
14766;SDS011;7475;53.558;9.970;2022-08-21T06:43:53;4.57;;;2.00;;
14766;SDS011;7475;53.558;9.970;2022-08-21T06:46:19;2.92;;;1.75;;
14766;SDS011;7475;53.558;9.970;2022-08-21T06:48:44;4.80;;;1.85;;
14766;SDS011;7475;53.558;9.970;2022-08-21T06:51:09;3.45;;;2.00;;
14766;SDS011;7475;53.558;9.970;2022-08-21T06:53:34;3.70;;;1.80;;
14766;SDS011;7475;53.558;9.970;2022-08-21T06:56:00;4.18;;;2.10;;
14766;SDS011;7475;53.558;9.970;2022-08-21T06:58:25;6.85;;;1.60;;
14766;SDS011;7475;53.558;9.970;2022-08-21T07:00:50;4.60;;;1.80;;
14766;SDS011;7475;53.558;9.970;2022-08-21T07:03:24;4.00;;;1.88;;
14766;SDS011;7475;53.558;9.970;2022-08-21T07:05:50;3.88;;;1.80;;
14766;SDS011;7475;53.558;9.970;2022-08-21T07:08:15;6.68;;;1.80;;
14766;SDS011;7475;53.558;9.970;2022-08-21T07:10:41;5.65;;;2.20;;
14766;SDS011;7475;53.558;9.970;2022-08-21T07:13:06;4.28;;;1.77;;
14766;SDS011;7475;53.558;9.970;2022-08-21T07:15:32;4.22;;;2.10;;
14766;SDS011;7475;53.558;9.970;2022-08-21T07:18:00;3.35;;;1.63;;
14766;SDS011;7475;53.558;9.970;2022-08-21T07:20:26;5.57;;;1.98;;
14766;SDS011;7475;53.558;9.970;2022-08-21T07:22:51;5.40;;;1.73;;
14766;SDS011;7475;53.558;9.970;2022-08-21T07:25:17;6.35;;;1.75;;
14766;SDS011;7475;53.558;9.970;2022-08-21T07:27:42;3.95;;;1.70;;
14766;SDS011;7475;53.558;9.970;2022-08-21T07:30:07;33.30;;;4.13;;
14766;SDS011;7475;53.558;9.970;2022-08-21T07:32:33;5.50;;;1.90;;
14766;SDS011;7475;53.558;9.970;2022-08-21T07:34:58;2.88;;;1.73;;
14766;SDS011;7475;53.558;9.970;2022-08-21T07:37:23;3.15;;;1.52;;
14766;SDS011;7475;53.558;9.970;2022-08-21T07:39:49;3.55;;;1.40;;
14766;SDS011;7475;53.558;9.970;2022-08-21T07:42:15;5.57;;;2.00;;
14766;SDS011;7475;53.558;9.970;2022-08-21T07:44:41;5.40;;;1.95;;
14766;SDS011;7475;53.558;9.970;2022-08-21T07:47:06;3.23;;;1.63;;
14766;SDS011;7475;53.558;9.970;2022-08-21T07:49:31;2.43;;;1.70;;
14766;SDS011;7475;53.558;9.970;2022-08-21T07:51:56;4.00;;;1.80;;
14766;SDS011;7475;53.558;9.970;2022-08-21T07:54:21;4.25;;;1.70;;
14766;SDS011;7475;53.558;9.970;2022-08-21T07:56:47;5.47;;;1.90;;
14766;SDS011;7475;53.558;9.970;2022-08-21T07:59:12;3.10;;;1.67;;
14766;SDS011;7475;53.558;9.970;2022-08-21T08:01:37;4.93;;;1.67;;
14766;SDS011;7475;53.558;9.970;2022-08-21T08:04:02;4.90;;;1.90;;
14766;SDS011;7475;53.558;9.970;2022-08-21T08:06:28;5.13;;;1.77;;
14766;SDS011;7475;53.558;9.970;2022-08-21T08:08:54;4.13;;;1.70;;
14766;SDS011;7475;53.558;9.970;2022-08-21T08:11:19;6.00;;;2.20;;
14766;SDS011;7475;53.558;9.970;2022-08-21T08:13:49;3.90;;;2.03;;
14766;SDS011;7475;53.558;9.970;2022-08-21T08:16:15;5.35;;;1.95;;
14766;SDS011;7475;53.558;9.970;2022-08-21T08:18:40;6.45;;;2.28;;
14766;SDS011;7475;53.558;9.970;2022-08-21T08:21:07;5.82;;;2.97;;
14766;SDS011;7475;53.558;9.970;2022-08-21T08:23:32;6.60;;;2.50;;
14766;SDS011;7475;53.558;9.970;2022-08-21T08:25:58;5.13;;;2.10;;
14766;SDS011;7475;53.558;9.970;2022-08-21T08:28:23;5.60;;;2.30;;
14766;SDS011;7475;53.558;9.970;2022-08-21T08:30:49;5.90;;;2.65;;
14766;SDS011;7475;53.558;9.970;2022-08-21T08:33:15;5.95;;;2.45;;
14766;SDS011;7475;53.558;9.970;2022-08-21T08:35:41;5.15;;;2.25;;
14766;SDS011;7475;53.558;9.970;2022-08-21T08:38:07;5.28;;;1.92;;
14766;SDS011;7475;53.558;9.970;2022-08-21T08:40:36;5.43;;;2.10;;
14766;SDS011;7475;53.558;9.970;2022-08-21T08:43:03;4.50;;;1.98;;
14766;SDS011;7475;53.558;9.970;2022-08-21T08:45:30;6.97;;;2.03;;
14766;SDS011;7475;53.558;9.970;2022-08-21T08:47:58;4.47;;;2.30;;
14766;SDS011;7475;53.558;9.970;2022-08-21T08:53:07;5.35;;;2.10;;
14766;SDS011;7475;53.558;9.970;2022-08-21T08:55:37;5.32;;;1.98;;
14766;SDS011;7475;53.558;9.970;2022-08-21T08:58:04;5.20;;;2.10;;
14766;SDS011;7475;53.558;9.970;2022-08-21T09:00:29;7.40;;;2.45;;
14766;SDS011;7475;53.558;9.970;2022-08-21T09:02:56;6.40;;;2.10;;
14766;SDS011;7475;53.558;9.970;2022-08-21T09:05:27;4.53;;;2.00;;
14766;SDS011;7475;53.558;9.970;2022-08-21T09:10:35;5.07;;;2.58;;
14766;SDS011;7475;53.558;9.970;2022-08-21T09:25:32;6.10;;;2.53;;
14766;SDS011;7475;53.558;9.970;2022-08-21T09:27:57;6.47;;;2.03;;
14766;SDS011;7475;53.558;9.970;2022-08-21T09:30:25;3.80;;;1.85;;
14766;SDS011;7475;53.558;9.970;2022-08-21T09:32:51;5.78;;;2.03;;
14766;SDS011;7475;53.558;9.970;2022-08-21T09:35:17;6.70;;;2.60;;
14766;SDS011;7475;53.558;9.970;2022-08-21T09:40:19;8.02;;;2.45;;
14766;SDS011;7475;53.558;9.970;2022-08-21T09:42:52;4.63;;;2.17;;
14766;SDS011;7475;53.558;9.970;2022-08-21T09:45:18;6.40;;;2.40;;
14766;SDS011;7475;53.558;9.970;2022-08-21T09:47:43;5.80;;;2.55;;
14766;SDS011;7475;53.558;9.970;2022-08-21T09:50:15;6.78;;;2.60;;
14766;SDS011;7475;53.558;9.970;2022-08-21T09:52:44;7.65;;;2.50;;
14766;SDS011;7475;53.558;9.970;2022-08-21T09:55:15;6.25;;;2.20;;
14766;SDS011;7475;53.558;9.970;2022-08-21T09:58:01;7.72;;;2.28;;
14766;SDS011;7475;53.558;9.970;2022-08-21T10:02:52;5.65;;;2.28;;
14766;SDS011;7475;53.558;9.970;2022-08-21T10:05:25;7.85;;;2.40;;
14766;SDS011;7475;53.558;9.970;2022-08-21T10:07:51;4.93;;;2.15;;
14766;SDS011;7475;53.558;9.970;2022-08-21T10:10:20;5.07;;;2.30;;
14766;SDS011;7475;53.558;9.970;2022-08-21T10:15:24;3.80;;;2.43;;
14766;SDS011;7475;53.558;9.970;2022-08-21T10:20:37;6.13;;;2.40;;
14766;SDS011;7475;53.558;9.970;2022-08-21T10:25:58;8.27;;;2.83;;
14766;SDS011;7475;53.558;9.970;2022-08-21T10:35:56;6.68;;;2.28;;
14766;SDS011;7475;53.558;9.970;2022-08-21T10:43:34;4.15;;;1.88;;
14766;SDS011;7475;53.558;9.970;2022-08-21T10:46:08;4.65;;;2.25;;
14766;SDS011;7475;53.558;9.970;2022-08-21T10:51:15;4.07;;;1.87;;
14766;SDS011;7475;53.558;9.970;2022-08-21T10:53:45;4.32;;;2.10;;
14766;SDS011;7475;53.558;9.970;2022-08-21T10:56:13;5.32;;;2.47;;
14766;SDS011;7475;53.558;9.970;2022-08-21T10:59:02;4.30;;;2.00;;
14766;SDS011;7475;53.558;9.970;2022-08-21T11:01:32;3.88;;;2.17;;
14766;SDS011;7475;53.558;9.970;2022-08-21T11:06:45;5.30;;;4.75;;
14766;SDS011;7475;53.558;9.970;2022-08-21T11:09:13;4.03;;;2.17;;
14766;SDS011;7475;53.558;9.970;2022-08-21T11:11:44;3.28;;;1.90;;
14766;SDS011;7475;53.558;9.970;2022-08-21T11:14:13;2.97;;;1.60;;
14766;SDS011;7475;53.558;9.970;2022-08-21T11:17:00;3.00;;;2.10;;
14766;SDS011;7475;53.558;9.970;2022-08-21T11:19:33;3.45;;;1.85;;
14766;SDS011;7475;53.558;9.970;2022-08-21T11:22:08;3.13;;;1.45;;
14766;SDS011;7475;53.558;9.970;2022-08-21T11:24:44;2.70;;;1.73;;
14766;SDS011;7475;53.558;9.970;2022-08-21T11:29:38;4.22;;;2.20;;
14766;SDS011;7475;53.558;9.970;2022-08-21T11:34:57;3.42;;;2.20;;
14766;SDS011;7475;53.558;9.970;2022-08-21T11:37:30;3.63;;;1.90;;
14766;SDS011;7475;53.558;9.970;2022-08-21T11:42:39;5.53;;;2.15;;
14766;SDS011;7475;53.558;9.970;2022-08-21T11:50:13;3.35;;;2.03;;
14766;SDS011;7475;53.558;9.970;2022-08-21T11:53:26;2.78;;;1.88;;
14766;SDS011;7475;53.558;9.970;2022-08-21T11:58:03;4.20;;;1.80;;
14766;SDS011;7475;53.558;9.970;2022-08-21T12:00:31;3.15;;;1.38;;
14766;SDS011;7475;53.558;9.970;2022-08-21T12:05:57;2.22;;;1.70;;
14766;SDS011;7475;53.558;9.970;2022-08-21T12:08:29;3.88;;;1.85;;
14766;SDS011;7475;53.558;9.970;2022-08-21T12:13:40;3.03;;;2.00;;
14766;SDS011;7475;53.558;9.970;2022-08-21T12:16:09;2.75;;;1.85;;
14766;SDS011;7475;53.558;9.970;2022-08-21T12:18:35;5.43;;;1.98;;
14766;SDS011;7475;53.558;9.970;2022-08-21T12:23:33;4.00;;;1.60;;
14766;SDS011;7475;53.558;9.970;2022-08-21T12:26:09;4.10;;;2.55;;
14766;SDS011;7475;53.558;9.970;2022-08-21T12:28:35;3.92;;;1.90;;
14766;SDS011;7475;53.558;9.970;2022-08-21T12:31:01;5.00;;;2.15;;
14766;SDS011;7475;53.558;9.970;2022-08-21T12:35:52;4.13;;;2.17;;
14766;SDS011;7475;53.558;9.970;2022-08-21T12:38:20;2.40;;;1.63;;
14766;SDS011;7475;53.558;9.970;2022-08-21T12:40:48;3.10;;;1.85;;
14766;SDS011;7475;53.558;9.970;2022-08-21T12:43:17;3.00;;;1.85;;
14766;SDS011;7475;53.558;9.970;2022-08-21T12:45:46;4.97;;;2.00;;
14766;SDS011;7475;53.558;9.970;2022-08-21T12:48:20;3.67;;;1.80;;
14766;SDS011;7475;53.558;9.970;2022-08-21T12:53:37;4.03;;;1.70;;
14766;SDS011;7475;53.558;9.970;2022-08-21T12:56:04;2.78;;;1.60;;
14766;SDS011;7475;53.558;9.970;2022-08-21T12:58:39;3.03;;;1.70;;
14766;SDS011;7475;53.558;9.970;2022-08-21T13:01:13;2.67;;;1.83;;
14766;SDS011;7475;53.558;9.970;2022-08-21T13:03:42;3.25;;;1.80;;
14766;SDS011;7475;53.558;9.970;2022-08-21T13:06:12;1.90;;;1.40;;
14766;SDS011;7475;53.558;9.970;2022-08-21T13:08:39;2.10;;;1.35;;
14766;SDS011;7475;53.558;9.970;2022-08-21T13:11:05;4.10;;;1.70;;
14766;SDS011;7475;53.558;9.970;2022-08-21T13:13:31;4.45;;;1.80;;
14766;SDS011;7475;53.558;9.970;2022-08-21T13:15:57;2.03;;;1.48;;
14766;SDS011;7475;53.558;9.970;2022-08-21T13:18:24;5.03;;;2.85;;
14766;SDS011;7475;53.558;9.970;2022-08-21T13:20:50;3.00;;;1.75;;
14766;SDS011;7475;53.558;9.970;2022-08-21T13:25:44;2.92;;;1.80;;
14766;SDS011;7475;53.558;9.970;2022-08-21T13:28:10;2.28;;;1.52;;
14766;SDS011;7475;53.558;9.970;2022-08-21T13:30:39;5.05;;;2.20;;
14766;SDS011;7475;53.558;9.970;2022-08-21T13:33:05;5.10;;;1.95;;
14766;SDS011;7475;53.558;9.970;2022-08-21T13:35:34;2.45;;;1.30;;
14766;SDS011;7475;53.558;9.970;2022-08-21T13:38:01;2.78;;;1.50;;
14766;SDS011;7475;53.558;9.970;2022-08-21T13:40:39;2.75;;;1.90;;
14766;SDS011;7475;53.558;9.970;2022-08-21T13:43:11;4.18;;;1.60;;
14766;SDS011;7475;53.558;9.970;2022-08-21T13:45:37;3.13;;;1.70;;
14766;SDS011;7475;53.558;9.970;2022-08-21T13:48:02;2.00;;;1.70;;
14766;SDS011;7475;53.558;9.970;2022-08-21T13:50:28;2.70;;;1.70;;
14766;SDS011;7475;53.558;9.970;2022-08-21T13:52:55;5.20;;;1.80;;
14766;SDS011;7475;53.558;9.970;2022-08-21T13:55:24;2.55;;;1.60;;
14766;SDS011;7475;53.558;9.970;2022-08-21T13:58:00;2.47;;;1.65;;
14766;SDS011;7475;53.558;9.970;2022-08-21T14:00:26;2.22;;;1.75;;
14766;SDS011;7475;53.558;9.970;2022-08-21T14:02:52;2.95;;;1.75;;
14766;SDS011;7475;53.558;9.970;2022-08-21T14:05:22;2.17;;;1.60;;
14766;SDS011;7475;53.558;9.970;2022-08-21T14:07:48;3.53;;;1.67;;
14766;SDS011;7475;53.558;9.970;2022-08-21T14:10:16;2.95;;;1.67;;
14766;SDS011;7475;53.558;9.970;2022-08-21T14:12:50;3.47;;;1.80;;
14766;SDS011;7475;53.558;9.970;2022-08-21T14:15:17;2.72;;;1.67;;
14766;SDS011;7475;53.558;9.970;2022-08-21T14:17:42;3.40;;;1.88;;
14766;SDS011;7475;53.558;9.970;2022-08-21T14:20:10;2.65;;;1.40;;
14766;SDS011;7475;53.558;9.970;2022-08-21T14:28:11;2.72;;;1.48;;
14766;SDS011;7475;53.558;9.970;2022-08-21T14:30:33;5.13;;;1.70;;
14766;SDS011;7475;53.558;9.970;2022-08-21T14:33:00;3.40;;;1.90;;
14766;SDS011;7475;53.558;9.970;2022-08-21T14:35:25;3.00;;;1.70;;
14766;SDS011;7475;53.558;9.970;2022-08-21T14:37:51;4.13;;;1.60;;
14766;SDS011;7475;53.558;9.970;2022-08-21T14:40:17;3.75;;;1.75;;
14766;SDS011;7475;53.558;9.970;2022-08-21T14:42:43;3.03;;;1.58;;
14766;SDS011;7475;53.558;9.970;2022-08-21T14:47:40;2.55;;;1.63;;
14766;SDS011;7475;53.558;9.970;2022-08-21T14:50:05;3.38;;;1.52;;
14766;SDS011;7475;53.558;9.970;2022-08-21T14:52:30;2.78;;;1.60;;
14766;SDS011;7475;53.558;9.970;2022-08-21T14:54:57;4.43;;;1.90;;
14766;SDS011;7475;53.558;9.970;2022-08-21T14:57:22;5.73;;;2.60;;
14766;SDS011;7475;53.558;9.970;2022-08-21T14:59:48;10.43;;;7.65;;
14766;SDS011;7475;53.558;9.970;2022-08-21T15:02:14;3.97;;;1.70;;
14766;SDS011;7475;53.558;9.970;2022-08-21T15:04:39;3.00;;;2.00;;
14766;SDS011;7475;53.558;9.970;2022-08-21T15:07:04;2.42;;;1.67;;
14766;SDS011;7475;53.558;9.970;2022-08-21T15:09:30;2.47;;;2.27;;
14766;SDS011;7475;53.558;9.970;2022-08-21T15:11:55;2.30;;;1.85;;
14766;SDS011;7475;53.558;9.970;2022-08-21T15:14:22;5.47;;;1.70;;
14766;SDS011;7475;53.558;9.970;2022-08-21T15:16:48;5.13;;;2.90;;
14766;SDS011;7475;53.558;9.970;2022-08-21T15:19:13;4.90;;;2.15;;
14766;SDS011;7475;53.558;9.970;2022-08-21T15:21:39;2.63;;;1.80;;
14766;SDS011;7475;53.558;9.970;2022-08-21T15:24:04;5.93;;;3.97;;
14766;SDS011;7475;53.558;9.970;2022-08-21T15:26:29;4.17;;;1.90;;
14766;SDS011;7475;53.558;9.970;2022-08-21T15:28:55;4.90;;;1.58;;
14766;SDS011;7475;53.558;9.970;2022-08-21T15:31:20;2.95;;;1.60;;
14766;SDS011;7475;53.558;9.970;2022-08-21T15:33:45;3.00;;;1.60;;
14766;SDS011;7475;53.558;9.970;2022-08-21T15:36:10;2.92;;;1.80;;
14766;SDS011;7475;53.558;9.970;2022-08-21T15:38:36;2.73;;;1.80;;
14766;SDS011;7475;53.558;9.970;2022-08-21T15:41:02;2.92;;;1.80;;
14766;SDS011;7475;53.558;9.970;2022-08-21T15:43:29;4.93;;;2.53;;
14766;SDS011;7475;53.558;9.970;2022-08-21T15:45:54;5.03;;;2.95;;
14766;SDS011;7475;53.558;9.970;2022-08-21T15:48:20;4.22;;;2.75;;
14766;SDS011;7475;53.558;9.970;2022-08-21T15:50:46;8.70;;;6.90;;
14766;SDS011;7475;53.558;9.970;2022-08-21T15:53:11;4.18;;;2.72;;
14766;SDS011;7475;53.558;9.970;2022-08-21T15:55:36;3.72;;;1.95;;
14766;SDS011;7475;53.558;9.970;2022-08-21T15:58:02;3.00;;;1.73;;
14766;SDS011;7475;53.558;9.970;2022-08-21T16:00:28;2.88;;;1.80;;
14766;SDS011;7475;53.558;9.970;2022-08-21T16:02:56;3.30;;;2.20;;
14766;SDS011;7475;53.558;9.970;2022-08-21T16:05:22;3.28;;;1.67;;
14766;SDS011;7475;53.558;9.970;2022-08-21T16:07:47;3.15;;;1.50;;
14766;SDS011;7475;53.558;9.970;2022-08-21T16:10:14;2.78;;;1.65;;
14766;SDS011;7475;53.558;9.970;2022-08-21T16:12:47;5.20;;;2.38;;
14766;SDS011;7475;53.558;9.970;2022-08-21T16:15:13;5.43;;;2.40;;
14766;SDS011;7475;53.558;9.970;2022-08-21T16:17:40;2.72;;;2.05;;
14766;SDS011;7475;53.558;9.970;2022-08-21T16:20:07;3.85;;;1.90;;
14766;SDS011;7475;53.558;9.970;2022-08-21T16:22:33;4.43;;;1.83;;